Time;durP1;ratioP1;P1;durP2;ratioP2;P2;SDS_P1;SDS_P2;PMS_P1;PMS_P2;Temp;Humidity;BMP_temperature;BMP_pressure;BME280_temperature;BME280_humidity;BME280_pressure;Samples;Min_cycle;Max_cycle;Signal;HPM_P1;HPM_P2
2022/06/18 00:02:11;;;;;;;2.13;1.92;;;;;;;20.34;46.72;99389.06;2621085;47;20057;-67
2022/06/18 00:04:41;;;;;;;2.38;1.52;;;;;;;20.34;46.17;99383.69;2620765;54;20023;-66
2022/06/18 00:07:17;;;;;;;5.10;2.00;;;;;;;20.40;45.79;99384.59;2619749;47;20059;-67
2022/06/18 00:10:01;;;;;;;2.10;1.80;;;;;;;20.50;45.71;99385.63;2620118;47;20530;-66
2022/06/18 00:15:18;;;;;;;2.92;2.35;;;;;;;20.44;46.22;99383.03;2620071;47;20038;-67
2022/06/18 00:17:51;;;;;;;2.90;2.08;;;;;;;20.17;47.01;99375.63;2620162;47;20061;-66
2022/06/18 00:20:23;;;;;;;3.58;2.25;;;;;;;20.12;46.95;99374.69;2619924;54;20039;-67
2022/06/18 00:22:56;;;;;;;2.53;1.98;;;;;;;20.14;46.89;99380.66;2619157;47;20054;-66
2022/06/18 00:25:30;;;;;;;2.92;2.20;;;;;;;20.14;46.70;99369.91;2619333;54;20041;-66
2022/06/18 00:28:02;;;;;;;2.63;2.13;;;;;;;20.08;46.96;99371.66;2619203;54;20037;-67
2022/06/18 00:30:33;;;;;;;3.22;2.00;;;;;;;20.07;47.55;99377.28;2619337;54;20030;-66
2022/06/18 00:33:05;;;;;;;2.78;1.95;;;;;;;19.98;47.10;99372.31;2619046;39;20466;-66
2022/06/18 00:35:36;;;;;;;2.83;2.10;;;;;;;19.99;47.60;99373.13;2618921;47;20031;-67
2022/06/18 00:38:08;;;;;;;3.75;1.90;;;;;;;20.02;47.49;99369.97;2618968;54;20534;-67
2022/06/18 00:40:41;;;;;;;1.75;1.65;;;;;;;20.07;47.26;99369.22;2619362;54;20022;-67
2022/06/18 00:43:30;;;;;;;2.30;2.10;;;;;;;20.04;47.04;99370.53;2620640;54;20043;-67
2022/06/18 00:46:05;;;;;;;3.55;1.90;;;;;;;19.86;48.00;99366.16;2620173;54;20030;-66
2022/06/18 00:48:43;;;;;;;2.72;1.83;;;;;;;19.79;48.20;99363.63;2620715;54;20026;-68
2022/06/18 00:51:18;;;;;;;2.00;1.80;;;;;;;19.69;48.19;99368.81;2620092;54;20027;-68
2022/06/18 00:53:55;;;;;;;2.55;1.73;;;;;;;19.62;48.44;99365.44;2620366;47;20046;-67
2022/06/18 00:56:54;;;;;;;2.05;1.70;;;;;;;19.67;48.53;99365.53;2620128;54;20031;-66
2022/06/18 00:59:31;;;;;;;2.75;1.75;;;;;;;19.73;48.68;99364.59;2620122;47;20041;-68
2022/06/18 01:02:08;;;;;;;3.90;2.30;;;;;;;19.82;48.46;99364.22;2620936;47;20034;-68
2022/06/18 01:04:41;;;;;;;6.57;2.30;;;;;;;19.89;48.63;99365.69;2619964;47;20030;-67
2022/06/18 01:07:23;;;;;;;2.75;2.13;;;;;;;19.89;48.24;99360.34;2619684;47;20146;-67
2022/06/18 01:10:07;;;;;;;3.30;2.40;;;;;;;19.86;48.83;99362.69;2620689;47;20027;-66
2022/06/18 01:12:46;;;;;;;3.20;2.03;;;;;;;19.74;48.53;99363.53;2620792;47;20041;-65
2022/06/18 01:15:21;;;;;;;;;;;;;;;19.64;49.05;99360.66;2620471;47;20098;-69
2022/06/18 01:17:57;;;;;;;3.05;1.85;;;;;;;19.71;48.82;99355.94;2620359;54;19938;-66
2022/06/18 01:20:30;;;;;;;2.55;2.20;;;;;;;19.75;48.96;99354.41;2619552;47;20034;-67
2022/06/18 01:23:09;;;;;;;4.07;1.92;;;;;;;19.67;49.19;99354.78;2619762;54;20123;-65
2022/06/18 01:25:43;;;;;;;7.55;5.93;;;;;;;19.58;48.86;99345.47;2619462;47;20136;-65
2022/06/18 01:28:16;;;;;;;5.65;3.85;;;;;;;19.39;49.45;99341.31;2619523;54;20122;-65
2022/06/18 01:30:49;;;;;;;3.47;2.65;;;;;;;19.14;49.86;99339.72;2619670;47;20022;-66
2022/06/18 01:33:20;;;;;;;2.25;2.00;;;;;;;19.07;50.61;99340.94;2620790;54;20026;-66
2022/06/18 01:35:55;;;;;;;2.20;2.00;;;;;;;19.00;50.59;99347.22;2618836;47;20014;-65
2022/06/18 01:38:30;;;;;;;2.03;1.83;;;;;;;18.91;50.70;99345.94;2619458;54;20086;-66
2022/06/18 01:43:59;;;;;;;3.10;2.15;;;;;;;18.91;50.71;99337.91;2621775;47;20038;-67
2022/06/18 01:46:29;;;;;;;2.08;1.98;;;;;;;18.98;51.10;99335.09;2622935;39;20443;-67
2022/06/18 01:49:01;;;;;;;4.40;2.83;;;;;;;19.03;51.08;99332.56;2621562;39;20441;-66
2022/06/18 01:51:36;;;;;;;3.20;1.92;;;;;;;18.92;51.02;99331.50;2620669;51;20046;-67
2022/06/18 01:54:13;;;;;;;3.42;2.17;;;;;;;18.85;50.98;99336.16;2621679;54;20034;-68
2022/06/18 01:56:49;;;;;;;3.25;2.75;;;;;;;18.80;51.64;99339.53;2621559;46;20033;-67
2022/06/18 01:59:24;;;;;;;2.08;1.90;;;;;;;18.86;51.82;99331.59;2621088;47;20027;-66
2022/06/18 02:01:55;;;;;;;3.00;1.85;;;;;;;18.86;51.19;99329.78;2621567;54;20041;-67
2022/06/18 02:04:26;;;;;;;2.20;2.10;;;;;;;18.78;51.36;99322.91;2620913;39;20506;-66
2022/06/18 02:06:57;;;;;;;2.88;2.35;;;;;;;18.71;51.12;99324.88;2620423;54;20565;-66
2022/06/18 02:09:36;;;;;;;2.35;1.85;;;;;;;18.62;51.20;99328.91;2621252;54;20031;-65
2022/06/18 02:12:12;;;;;;;2.40;2.10;;;;;;;18.58;51.43;99324.25;2620398;46;20042;-67
2022/06/18 02:14:45;;;;;;;2.30;2.10;;;;;;;18.47;51.93;99334.72;2621966;54;20049;-66
2022/06/18 02:17:18;;;;;;;2.40;1.70;;;;;;;18.42;52.11;99328.44;2622437;54;20613;-66
2022/06/18 02:19:53;;;;;;;2.35;1.98;;;;;;;18.40;52.08;99331.31;2621606;47;20037;-66
2022/06/18 02:22:26;;;;;;;3.63;2.10;;;;;;;18.40;51.96;99327.81;2620737;47;20034;-67
2022/06/18 02:24:56;;;;;;;2.20;1.77;;;;;;;18.34;51.68;99326.91;2620725;54;20114;-66
2022/06/18 02:27:28;;;;;;;2.33;2.15;;;;;;;18.35;52.11;99325.03;2623436;54;20581;-66
2022/06/18 02:29:58;;;;;;;2.17;1.98;;;;;;;18.41;51.71;99330.28;2620815;47;20059;-67
2022/06/18 02:32:36;;;;;;;1.83;1.73;;;;;;;18.48;51.32;99325.63;2617967;47;20034;-65
2022/06/18 02:35:13;;;;;;;2.35;2.15;;;;;;;18.53;51.41;99320.41;2618661;39;20367;-66
2022/06/18 02:37:43;;;;;;;2.20;2.00;;;;;;;18.46;51.66;99325.06;2618294;54;20039;-67
2022/06/18 02:40:19;;;;;;;2.17;1.98;;;;;;;18.44;51.78;99320.97;2618240;54;20554;-67
2022/06/18 02:42:54;;;;;;;2.33;2.10;;;;;;;18.24;52.33;99323.94;2618139;54;20038;-66
2022/06/18 02:45:27;;;;;;;2.90;1.73;;;;;;;18.24;52.86;99323.94;2617872;51;20026;-68
2022/06/18 02:48:00;;;;;;;4.18;2.45;;;;;;;18.29;52.79;99329.47;2617800;54;20534;-66
2022/06/18 02:50:33;;;;;;;3.10;2.10;;;;;;;18.24;52.69;99326.63;2618606;54;20022;-66
2022/06/18 02:53:04;;;;;;;2.10;1.90;;;;;;;18.28;53.19;99327.81;2617745;54;20601;-67
2022/06/18 02:55:39;;;;;;;5.33;2.17;;;;;;;18.23;52.72;99325.00;2617836;54;20023;-66
2022/06/18 02:58:17;;;;;;;2.63;2.10;;;;;;;18.18;52.93;99327.56;2618540;54;20033;-67
2022/06/18 03:00:51;;;;;;;3.53;1.98;;;;;;;18.16;53.54;99327.78;2618717;54;20118;-64
2022/06/18 03:03:23;;;;;;;2.80;2.00;;;;;;;18.23;53.07;99333.84;2618624;54;20045;-65
2022/06/18 03:05:54;;;;;;;4.13;1.95;;;;;;;18.12;53.50;99328.47;2619013;54;20178;-67
2022/06/18 03:08:26;;;;;;;2.22;1.88;;;;;;;18.03;53.81;99327.97;2618378;54;20034;-65
2022/06/18 03:13:47;;;;;;;2.45;1.90;;;;;;;18.19;53.38;99327.31;2617962;54;20038;-65
2022/06/18 03:16:19;;;;;;;2.25;2.13;;;;;;;18.04;53.52;99318.91;2618094;47;20038;-65
2022/06/18 03:18:51;;;;;;;4.45;2.22;;;;;;;17.88;53.86;99327.56;2618242;54;20034;-66
2022/06/18 03:21:26;;;;;;;2.05;1.85;;;;;;;17.73;54.62;99334.13;2618010;47;20031;-66
2022/06/18 03:23:56;;;;;;;2.38;1.80;;;;;;;17.78;54.18;99330.81;2617990;39;20433;-65
2022/06/18 03:26:26;;;;;;;1.77;1.67;;;;;;;17.92;54.11;99328.75;2618043;49;20065;-65
2022/06/18 03:29:00;;;;;;;3.25;2.35;;;;;;;17.93;54.39;99335.75;2618004;47;20086;-65
2022/06/18 03:31:30;;;;;;;2.50;2.30;;;;;;;17.88;54.26;99335.59;2617855;47;20056;-65
2022/06/18 03:34:00;;;;;;;1.83;1.73;;;;;;;17.91;54.26;99335.16;2617954;54;20026;-65
2022/06/18 03:36:31;;;;;;;2.72;1.88;;;;;;;18.02;54.05;99329.84;2618197;47;20038;-66
2022/06/18 03:39:01;;;;;;;2.90;2.15;;;;;;;18.22;53.37;99334.09;2618126;54;20532;-65
2022/06/18 03:41:32;;;;;;;2.35;2.15;;;;;;;18.25;53.67;99328.28;2617939;54;20154;-65
2022/06/18 03:44:05;;;;;;;2.45;2.10;;;;;;;18.30;53.29;99336.44;2617310;54;20349;-66
2022/06/18 03:46:39;;;;;;;2.23;2.00;;;;;;;18.05;53.32;99337.41;2617834;51;20026;-65
2022/06/18 03:49:26;;;;;;;3.90;2.22;;;;;;;17.88;54.32;99333.75;2618103;47;20242;-66
2022/06/18 03:51:59;;;;;;;2.95;2.28;;;;;;;17.89;54.40;99337.25;2619027;47;20035;-66
2022/06/18 03:54:28;;;;;;;2.53;2.33;;;;;;;17.95;54.12;99339.00;2619068;54;20043;-65
2022/06/18 03:56:59;;;;;;;2.45;2.03;;;;;;;17.96;54.16;99338.78;2618246;47;20103;-65
2022/06/18 03:59:34;;;;;;;2.85;2.30;;;;;;;17.94;54.22;99330.16;2618052;47;20041;-66
2022/06/18 04:02:07;;;;;;;2.53;2.15;;;;;;;18.01;54.06;99332.75;2617974;47;20077;-66
2022/06/18 04:04:43;;;;;;;3.15;2.17;;;;;;;17.82;54.24;99338.13;2618282;47;20035;-65
2022/06/18 04:07:20;;;;;;;2.30;2.10;;;;;;;17.87;54.25;99334.78;2618581;51;20153;-65
2022/06/18 04:10:21;;;;;;;2.40;2.20;;;;;;;17.85;54.13;99330.72;2619655;39;20437;-65
2022/06/18 04:12:53;;;;;;;2.53;2.33;;;;;;;17.75;54.43;99329.38;2618987;47;20051;-65
2022/06/18 04:15:50;;;;;;;2.97;2.13;;;;;;;17.81;54.66;99333.03;2618627;54;20034;-66
2022/06/18 04:18:40;;;;;;;3.17;2.40;;;;;;;17.84;54.23;99337.94;2618565;54;20061;-65
2022/06/18 04:21:13;;;;;;;4.78;2.40;;;;;;;17.97;54.19;99339.59;2617513;54;20038;-65
2022/06/18 04:23:44;;;;;;;2.47;2.28;;;;;;;18.02;53.90;99343.22;2617473;47;20122;-66
2022/06/18 04:26:15;;;;;;;2.53;1.83;;;;;;;18.09;53.77;99335.09;2619146;51;20556;-65
2022/06/18 04:28:47;;;;;;;2.30;2.10;;;;;;;18.21;53.54;99335.94;2619828;47;20036;-66
2022/06/18 04:31:23;;;;;;;3.00;2.80;;;;;;;18.26;52.84;99332.59;2621976;47;20102;-65
2022/06/18 04:33:54;;;;;;;2.63;2.15;;;;;;;18.40;52.78;99338.53;2621860;54;20019;-65
2022/06/18 04:36:36;;;;;;;3.90;3.10;;;;;;;18.53;52.74;99336.47;2620171;39;20425;-65
2022/06/18 04:39:29;;;;;;;4.15;2.50;;;;;;;18.63;52.18;99333.22;2619069;54;20027;-66
2022/06/18 04:42:13;;;;;;;4.90;2.40;;;;;;;18.61;52.10;99329.94;2622674;47;20537;-66
2022/06/18 04:44:44;;;;;;;3.72;2.70;;;;;;;18.63;52.27;99329.72;2622662;47;20038;-64
2022/06/18 04:47:40;;;;;;;3.97;3.35;;;;;;;18.84;51.60;99326.50;2623888;47;20045;-64
2022/06/18 04:50:18;;;;;;;3.53;2.47;;;;;;;18.95;50.78;99322.19;2619269;54;20027;-65
2022/06/18 04:52:48;;;;;;;2.45;2.25;;;;;;;19.00;51.07;99319.63;2617543;54;20051;-67
2022/06/18 04:55:18;;;;;;;4.35;2.20;;;;;;;19.01;50.04;99318.56;2618040;54;20058;-65
2022/06/18 04:57:48;;;;;;;5.10;2.22;;;;;;;18.90;50.46;99312.19;2617235;54;20031;-66
2022/06/18 05:00:19;;;;;;;6.85;2.45;;;;;;;18.94;50.35;99316.03;2617353;47;20541;-65
2022/06/18 05:03:16;;;;;;;3.10;2.30;;;;;;;18.92;49.99;99311.94;2618268;54;20050;-66
2022/06/18 05:05:58;;;;;;;5.72;2.40;;;;;;;18.96;49.88;99315.78;2617879;54;20019;-66
2022/06/18 05:08:46;;;;;;;4.03;2.35;;;;;;;19.11;50.20;99326.03;2618919;54;20058;-65
2022/06/18 05:11:25;;;;;;;3.22;2.00;;;;;;;19.29;50.03;99315.94;2619223;54;20042;-67
2022/06/18 05:14:03;;;;;;;3.70;2.03;;;;;;;19.31;49.57;99323.78;2618129;46;20034;-66
2022/06/18 05:16:34;;;;;;;2.88;2.40;;;;;;;19.33;49.47;99318.16;2618338;50;20099;-64
2022/06/18 05:19:11;;;;;;;5.13;2.40;;;;;;;19.44;49.56;99317.31;2618675;54;20553;-65
2022/06/18 05:21:41;;;;;;;3.17;2.25;;;;;;;19.50;49.28;99316.34;2618654;47;20050;-66
2022/06/18 05:24:11;;;;;;;3.33;2.72;;;;;;;19.61;49.12;99312.00;2618249;46;20034;-66
2022/06/18 05:26:42;;;;;;;3.22;2.40;;;;;;;19.72;48.80;99308.50;2618600;54;20038;-66
2022/06/18 05:29:13;;;;;;;3.67;2.70;;;;;;;19.81;48.70;99300.88;2618440;54;20126;-65
2022/06/18 05:31:42;;;;;;;8.32;7.50;;;;;;;19.75;48.17;99297.28;2618983;39;20394;-65
2022/06/18 05:34:16;;;;;;;3.45;2.40;;;;;;;19.78;48.24;99296.81;2618192;54;20065;-66
2022/06/18 05:36:48;;;;;;;2.53;2.33;;;;;;;19.89;48.29;99295.13;2618710;54;20041;-65
2022/06/18 05:39:22;;;;;;;2.60;2.40;;;;;;;19.91;47.76;99290.31;2618264;39;20142;-65
2022/06/18 05:41:51;;;;;;;2.10;2.00;;;;;;;20.00;48.03;99288.88;2618395;54;20041;-65
2022/06/18 05:44:21;;;;;;;3.50;2.63;;;;;;;20.22;47.83;99295.16;2618486;47;20026;-66
2022/06/18 05:46:51;;;;;;;4.10;2.38;;;;;;;20.29;47.57;99293.13;2620093;54;20030;-65
2022/06/18 05:49:24;;;;;;;2.55;2.35;;;;;;;20.40;47.25;99283.34;2622972;54;20027;-66
2022/06/18 05:51:54;;;;;;;3.33;2.37;;;;;;;20.57;46.38;99282.56;2622567;54;20030;-67
2022/06/18 05:54:25;;;;;;;3.25;2.65;;;;;;;20.72;46.61;99280.91;2623165;54;20350;-67
2022/06/18 05:57:15;;;;;;;2.50;2.03;;;;;;;20.74;45.89;99292.25;2621564;39;20430;-65
2022/06/18 06:00:07;;;;;;;2.40;2.20;;;;;;;20.80;46.02;99285.06;2619308;54;20062;-65
2022/06/18 06:02:40;;;;;;;3.25;2.08;;;;;;;20.90;46.20;99276.31;2619140;54;20041;-66
2022/06/18 06:05:13;;;;;;;4.40;2.30;;;;;;;21.08;46.35;99275.22;2618065;47;20142;-66
2022/06/18 06:07:44;;;;;;;2.10;2.00;;;;;;;21.30;45.63;99270.63;2618282;54;20118;-65
2022/06/18 06:13:09;;;;;;;5.78;3.15;;;;;;;21.56;44.91;99263.72;2618072;54;20521;-66
2022/06/18 06:15:40;;;;;;;2.88;2.20;;;;;;;21.69;44.75;99268.69;2618113;47;20526;-66
2022/06/18 06:18:12;;;;;;;2.95;2.42;;;;;;;21.81;44.91;99262.34;2618812;54;20026;-66
2022/06/18 06:20:47;;;;;;;4.65;2.38;;;;;;;21.97;44.54;99267.59;2619012;54;20030;-66
2022/06/18 06:23:17;;;;;;;4.28;2.33;;;;;;;22.02;44.50;99259.56;2618793;54;20114;-66
2022/06/18 06:25:48;;;;;;;8.35;2.70;;;;;;;22.18;44.53;99262.44;2619010;54;20549;-65
2022/06/18 06:28:20;;;;;;;3.53;2.25;;;;;;;22.27;44.66;99266.25;2619314;54;20034;-65
2022/06/18 06:30:51;;;;;;;3.25;2.60;;;;;;;22.27;44.06;99265.44;2618334;47;20057;-66
2022/06/18 06:33:21;;;;;;;3.30;2.47;;;;;;;22.32;44.29;99263.59;2618700;54;20025;-66
2022/06/18 06:35:55;;;;;;;3.80;2.35;;;;;;;22.48;44.09;99268.03;2619028;39;20491;-67
2022/06/18 06:38:24;;;;;;;3.38;2.70;;;;;;;22.61;44.18;99265.94;2619114;54;20030;-64
2022/06/18 06:40:54;;;;;;;3.92;2.55;;;;;;;22.58;43.86;99267.31;2619620;54;20038;-66
2022/06/18 06:43:24;;;;;;;5.45;2.80;;;;;;;22.64;43.43;99266.25;2620584;39;20441;-65
2022/06/18 06:45:54;;;;;;;3.38;2.80;;;;;;;22.67;43.44;99263.03;2618936;54;20043;-66
2022/06/18 06:48:24;;;;;;;3.25;2.30;;;;;;;22.64;43.63;99260.03;2619084;39;20430;-66
2022/06/18 06:50:56;;;;;;;4.45;2.60;;;;;;;22.77;43.43;99266.84;2620853;54;20049;-66
2022/06/18 06:53:26;;;;;;;3.97;3.28;;;;;;;23.01;43.20;99260.00;2621046;54;20049;-64
2022/06/18 06:58:37;;;;;;;6.00;2.50;;;;;;;23.27;42.78;99265.50;2619765;54;20049;-67
2022/06/18 07:01:08;;;;;;;4.65;2.88;;;;;;;23.28;43.19;99262.56;2620660;54;20086;-65
2022/06/18 07:03:38;;;;;;;2.90;2.65;;;;;;;23.42;43.18;99268.25;2618333;54;20122;-65
2022/06/18 07:06:10;;;;;;;2.55;2.35;;;;;;;23.57;42.68;99259.41;2617930;51;20043;-67
2022/06/18 07:08:39;;;;;;;3.33;3.03;;;;;;;23.62;42.92;99254.00;2619097;39;20437;-64
2022/06/18 07:11:09;;;;;;;4.80;4.38;;;;;;;23.79;42.74;99251.09;2618594;54;20042;-65
2022/06/18 07:13:39;;;;;;;3.38;2.88;;;;;;;23.93;42.61;99254.91;2619512;54;20034;-64
2022/06/18 07:16:11;;;;;;;2.85;1.90;;;;;;;24.06;41.85;99248.16;2622002;39;20418;-64
2022/06/18 07:18:42;;;;;;;2.40;2.20;;;;;;;24.15;42.19;99247.31;2618859;54;20035;-65
2022/06/18 07:21:19;;;;;;;4.05;2.10;;;;;;;24.20;41.61;99244.59;2618433;54;20034;-64
2022/06/18 07:23:49;;;;;;;2.10;1.92;;;;;;;24.21;42.22;99240.03;2618472;54;20030;-65
2022/06/18 07:26:21;;;;;;;6.25;2.10;;;;;;;24.27;41.92;99232.72;2618957;39;20417;-64
2022/06/18 07:28:51;;;;;;;4.68;2.17;;;;;;;24.49;41.31;99227.03;2618687;54;20039;-65
2022/06/18 07:31:26;;;;;;;2.70;2.10;;;;;;;24.65;40.85;99224.03;2619040;39;20430;-65
2022/06/18 07:34:00;;;;;;;2.50;2.30;;;;;;;24.80;40.54;99214.25;2618623;39;20704;-64
2022/06/18 07:36:33;;;;;;;5.82;2.47;;;;;;;25.00;39.74;99224.19;2618359;54;20023;-65
2022/06/18 07:39:03;;;;;;;2.33;1.95;;;;;;;25.15;39.74;99221.47;2618771;39;20407;-65
2022/06/18 07:41:37;;;;;;;5.07;2.30;;;;;;;25.22;39.25;99223.84;2618573;54;20027;-65
2022/06/18 07:44:07;;;;;;;2.30;2.10;;;;;;;25.41;39.34;99224.84;2619189;54;20034;-65
2022/06/18 07:46:38;;;;;;;2.33;2.13;;;;;;;25.49;39.29;99220.72;2620025;54;20029;-67
2022/06/18 07:49:11;;;;;;;3.53;2.30;;;;;;;25.64;39.00;99221.44;2619274;47;20030;-66
2022/06/18 07:51:43;;;;;;;3.08;2.13;;;;;;;25.76;38.85;99217.56;2622100;54;20124;-66
2022/06/18 07:54:20;;;;;;;2.33;2.03;;;;;;;25.84;38.52;99216.97;2622454;47;20077;-67
2022/06/18 07:56:59;;;;;;;4.80;1.75;;;;;;;25.86;38.42;99207.50;2623604;54;20130;-64
2022/06/18 07:59:28;;;;;;;9.43;2.38;;;;;;;26.05;38.33;99210.31;2623483;54;20023;-65
2022/06/18 08:01:58;;;;;;;2.50;2.30;;;;;;;26.19;38.26;99205.84;2622757;54;20546;-65
2022/06/18 08:04:28;;;;;;;4.28;2.20;;;;;;;26.35;37.00;99200.28;2619079;54;20030;-64
2022/06/18 08:07:01;;;;;;;3.75;1.70;;;;;;;26.42;36.88;99204.28;2618465;54;20094;-66
2022/06/18 08:09:31;;;;;;;2.50;1.90;;;;;;;26.54;37.04;99195.78;2618340;54;20537;-65
2022/06/18 08:33:12;;;;;;;4.38;1.55;;;;;;;27.45;34.85;99170.47;2618765;47;20118;-69
2022/06/18 08:35:43;;;;;;;1.90;1.80;;;;;;;27.52;33.90;99170.94;2618077;54;20065;-69
2022/06/18 08:38:14;;;;;;;2.72;1.70;;;;;;;27.78;33.19;99168.63;2617525;47;20030;-69
2022/06/18 08:40:58;;;;;;;3.83;1.83;;;;;;;27.88;33.13;99163.00;2617988;49;20042;-69
2022/06/18 08:43:50;;;;;;;2.17;1.63;;;;;;;28.00;33.14;99157.91;2618598;54;20141;-69
2022/06/18 08:46:28;;;;;;;2.28;1.00;;;;;;;28.10;30.82;99159.66;2618449;54;20038;-71
2022/06/18 08:49:19;;;;;;;3.67;1.48;;;;;;;28.27;29.69;99146.28;2618262;54;20118;-71
2022/06/18 08:52:04;;;;;;;3.08;1.40;;;;;;;28.39;28.88;99146.63;2619124;54;20023;-70
2022/06/18 08:54:45;;;;;;;2.25;1.23;;;;;;;28.53;29.21;99152.03;2618916;54;20030;-69
2022/06/18 08:57:23;;;;;;;2.40;1.45;;;;;;;28.69;28.74;99159.91;2618592;54;20027;-69
2022/06/18 09:00:04;;;;;;;2.70;1.63;;;;;;;28.86;28.89;99147.31;2618149;54;20042;-69
2022/06/18 09:02:40;;;;;;;3.08;1.45;;;;;;;29.17;27.74;99145.84;2618670;54;20022;-69
2022/06/18 09:05:44;;;;;;;2.03;1.38;;;;;;;29.32;27.91;99142.78;2617836;54;20034;-70
2022/06/18 09:08:37;;;;;;;2.65;1.20;;;;;;;29.35;27.37;99128.53;2618431;54;20038;-72
2022/06/18 09:11:25;;;;;;;3.00;1.98;;;;;;;29.45;27.94;99133.75;2618593;54;20030;-70
2022/06/18 09:14:00;;;;;;;4.07;1.40;;;;;;;29.58;26.99;99130.19;2618479;54;20033;-70
2022/06/18 09:16:39;;;;;;;2.88;1.00;;;;;;;29.60;27.02;99127.97;2619251;39;20425;-69
2022/06/18 09:19:13;;;;;;;2.22;1.52;;;;;;;29.72;26.97;99124.69;2620142;54;20122;-69
2022/06/18 09:21:52;;;;;;;2.90;0.93;;;;;;;29.89;26.78;99115.78;2619446;54;20078;-70
2022/06/18 09:24:26;;;;;;;6.38;1.77;;;;;;;29.97;26.86;99111.50;2620191;54;20037;-70
2022/06/18 09:27:03;;;;;;;3.75;1.38;;;;;;;30.05;27.02;99110.75;2626077;54;20074;-71
2022/06/18 09:29:39;;;;;;;2.75;1.23;;;;;;;30.06;27.38;99115.88;2627513;54;20046;-69
2022/06/18 09:32:18;;;;;;;3.90;1.20;;;;;;;30.10;26.76;99116.06;2625046;54;20038;-69
2022/06/18 09:34:52;;;;;;;2.15;1.65;;;;;;;30.18;26.96;99109.88;2624987;54;20853;-68
2022/06/18 09:37:31;;;;;;;4.30;1.30;;;;;;;30.18;26.61;99109.06;2624174;54;20034;-69
2022/06/18 09:40:02;;;;;;;2.38;1.60;;;;;;;30.17;26.71;99101.97;2619885;54;20545;-68
2022/06/18 09:42:51;;;;;;;1.77;1.40;;;;;;;30.30;26.83;99103.81;2618429;54;20022;-70
2022/06/18 09:45:26;;;;;;;3.13;1.50;;;;;;;30.50;26.99;99100.50;2618870;54;20034;-69
2022/06/18 09:47:56;;;;;;;5.30;1.92;;;;;;;30.55;26.80;99097.63;2617805;51;20027;-69
2022/06/18 09:50:32;;;;;;;2.88;1.77;;;;;;;30.72;26.54;99087.88;2618540;54;20553;-68
2022/06/18 09:53:06;;;;;;;5.57;1.90;;;;;;;30.86;27.18;99088.53;2617778;54;20041;-69
2022/06/18 09:55:42;;;;;;;3.42;1.33;;;;;;;30.96;26.74;99087.44;2618099;54;20037;-69
2022/06/18 09:58:16;;;;;;;4.55;2.70;;;;;;;31.07;27.18;99084.06;2618466;54;20045;-70
2022/06/18 10:00:48;;;;;;;2.25;1.40;;;;;;;31.11;26.52;99088.88;2618171;54;20042;-69
2022/06/18 10:08:52;;;;;;;7.38;1.90;;;;;;;31.44;26.37;99073.63;2617705;54;20042;-69
2022/06/18 10:11:26;;;;;;;5.20;1.40;;;;;;;31.48;25.97;99074.59;2617548;54;20023;-70
2022/06/18 10:14:18;;;;;;;10.77;1.67;;;;;;;31.69;25.93;99068.44;2618091;54;20038;-70
2022/06/18 10:17:00;;;;;;;6.05;1.60;;;;;;;31.63;25.37;99058.78;2618253;54;20070;-69
2022/06/18 10:19:35;;;;;;;6.07;1.73;;;;;;;31.53;26.08;99058.00;2618397;54;20045;-70
2022/06/18 10:22:13;;;;;;;4.28;1.80;;;;;;;31.60;25.93;99056.69;2617635;54;20295;-69
2022/06/18 10:24:56;;;;;;;4.22;1.63;;;;;;;31.65;26.42;99040.94;2618815;54;20030;-68
2022/06/18 10:27:34;;;;;;;4.95;2.60;;;;;;;31.91;25.57;99046.34;2619017;54;20034;-69
2022/06/18 10:30:07;;;;;;;7.55;1.90;;;;;;;32.14;25.16;99046.88;2619111;54;20037;-69
2022/06/18 10:32:48;;;;;;;5.65;1.75;;;;;;;32.26;24.66;99040.72;2618478;54;20030;-68
2022/06/18 10:35:30;;;;;;;5.10;2.70;;;;;;;32.21;24.40;99044.44;2618505;54;20026;-70
2022/06/18 10:38:16;;;;;;;6.88;2.50;;;;;;;32.29;24.73;99035.38;2619837;54;20023;-70
2022/06/18 10:40:56;;;;;;;4.90;2.15;;;;;;;32.24;24.90;99038.28;2620562;39;20129;-69
2022/06/18 10:43:46;;;;;;;3.58;1.92;;;;;;;32.24;24.98;99037.50;2618864;54;20033;-69
2022/06/18 10:46:20;;;;;;;5.47;2.00;;;;;;;32.34;25.02;99031.66;2620918;54;20039;-68
2022/06/18 10:48:53;;;;;;;7.45;2.50;;;;;;;32.45;24.33;99016.47;2623093;39;20417;-70
2022/06/18 10:51:26;;;;;;;8.02;2.25;;;;;;;32.50;24.88;99027.25;2622273;54;20046;-71
2022/06/18 10:53:58;;;;;;;4.13;2.20;;;;;;;32.67;24.67;99022.78;2620309;47;20038;-70
2022/06/18 10:56:33;;;;;;;5.40;2.03;;;;;;;32.78;24.38;99008.34;2621571;54;20045;-69
2022/06/18 10:59:05;;;;;;;7.53;2.53;;;;;;;32.70;24.18;99009.22;2622010;54;20050;-69
2022/06/18 11:01:39;;;;;;;4.05;1.73;;;;;;;32.68;24.39;99005.22;2621815;54;20041;-68
2022/06/18 11:04:22;;;;;;;3.13;1.70;;;;;;;32.76;24.17;98999.66;2620692;54;20018;-69
2022/06/18 11:06:57;;;;;;;5.75;1.98;;;;;;;32.68;24.47;98997.00;2620488;54;20550;-70
2022/06/18 11:09:29;;;;;;;5.93;2.90;;;;;;;32.78;24.43;98997.41;2621136;54;20026;-69
2022/06/18 11:12:06;;;;;;;4.55;2.13;;;;;;;33.00;24.90;98992.72;2621060;54;20033;-69
2022/06/18 11:14:43;;;;;;;10.43;2.42;;;;;;;33.12;24.25;98990.03;2621007;54;20038;-69
2022/06/18 11:17:22;;;;;;;5.95;1.90;;;;;;;33.23;23.59;98985.72;2620770;54;20061;-69
2022/06/18 11:19:51;;;;;;;7.80;2.08;;;;;;;33.28;23.09;98987.44;2621423;54;20026;-69
2022/06/18 11:22:27;;;;;;;4.78;2.30;;;;;;;33.31;23.30;98977.72;2620452;54;20022;-69
2022/06/18 11:24:58;;;;;;;10.00;2.67;;;;;;;33.37;23.22;98979.13;2623312;39;20414;-70
2022/06/18 11:27:37;;;;;;;7.07;2.30;;;;;;;33.59;23.00;98973.25;2622761;54;20038;-70
2022/06/18 11:30:10;;;;;;;9.80;2.30;;;;;;;33.84;21.82;98970.50;2621119;54;20180;-70
2022/06/18 11:32:47;;;;;;;9.05;2.22;;;;;;;33.78;21.57;98969.94;2620911;54;20030;-70
2022/06/18 11:35:23;;;;;;;13.20;2.78;;;;;;;33.74;20.70;98961.59;2619817;39;20426;-70
2022/06/18 11:38:02;;;;;;;13.50;2.83;;;;;;;33.75;20.79;98954.97;2621137;31;20516;-69
2022/06/18 11:40:32;;;;;;;10.30;2.70;;;;;;;33.87;20.26;98953.38;2618692;54;20037;-68
2022/06/18 11:43:14;;;;;;;8.55;2.55;;;;;;;34.05;20.00;98959.44;2620093;47;20578;-70
2022/06/18 11:45:48;;;;;;;6.77;2.63;;;;;;;34.13;20.38;98958.50;2621511;54;20026;-71
2022/06/18 11:48:26;;;;;;;8.90;2.72;;;;;;;34.19;20.26;98949.72;2621818;47;21091;-70
2022/06/18 11:51:00;;;;;;;10.98;2.80;;;;;;;34.10;20.81;98951.78;2623192;54;20037;-70
2022/06/18 11:53:36;;;;;;;9.07;3.10;;;;;;;34.13;20.82;98944.81;2624958;39;20445;-70
2022/06/18 11:56:17;;;;;;;9.88;2.60;;;;;;;34.29;19.63;98931.97;2623932;54;20066;-70
2022/06/18 11:58:56;;;;;;;13.02;3.25;;;;;;;34.41;19.49;98933.88;2622990;54;20038;-71
2022/06/18 12:01:32;;;;;;;12.13;3.10;;;;;;;34.41;19.64;98931.94;2622401;54;20031;-70
2022/06/18 12:04:07;;;;;;;10.25;3.30;;;;;;;34.41;20.07;98931.13;2622808;39;20407;-72
2022/06/18 12:06:43;;;;;;;9.95;2.50;;;;;;;34.39;20.15;98923.25;2620232;54;20038;-71
2022/06/18 12:09:27;;;;;;;14.52;3.10;;;;;;;34.39;20.36;98919.72;2621369;54;20041;-71
2022/06/18 12:12:14;;;;;;;10.82;2.20;;;;;;;34.50;20.23;98918.91;2617915;54;20042;-73
2022/06/18 12:14:54;;;;;;;14.18;2.90;;;;;;;34.62;19.49;98911.75;2617209;54;20026;-70
2022/06/18 12:17:29;;;;;;;12.80;2.75;;;;;;;34.77;19.52;98907.47;2618508;39;20445;-70
2022/06/18 12:20:07;;;;;;;11.38;3.00;;;;;;;34.82;19.67;98912.69;2618055;54;20043;-72
2022/06/18 12:22:45;;;;;;;9.30;2.67;;;;;;;34.90;19.11;98898.81;2617823;54;20034;-71
2022/06/18 12:25:35;;;;;;;11.93;2.78;;;;;;;34.93;19.03;98900.84;2621847;54;20034;-70
2022/06/18 12:28:17;;;;;;;10.68;2.95;;;;;;;34.98;18.98;98899.81;2621098;54;20027;-70
2022/06/18 12:30:54;;;;;;;9.93;3.00;;;;;;;35.17;18.74;98893.66;2621061;54;20026;-70
2022/06/18 12:33:32;;;;;;;10.63;3.05;;;;;;;35.24;18.72;98891.06;2620305;47;20078;-71
2022/06/18 12:36:08;;;;;;;12.02;3.60;;;;;;;35.34;19.17;98893.28;2620487;54;20034;-71
2022/06/18 12:38:45;;;;;;;9.07;3.33;;;;;;;35.42;18.86;98878.56;2620197;54;20031;-70
2022/06/18 12:41:38;;;;;;;8.30;2.40;;;;;;;35.46;19.26;98882.19;2619889;54;20027;-70
2022/06/18 12:44:19;;;;;;;13.52;4.35;;;;;;;35.56;19.31;98885.56;2622209;54;20146;-71
2022/06/18 12:47:02;;;;;;;8.38;2.60;;;;;;;35.65;19.50;98864.22;2621889;54;20038;-72
2022/06/18 12:49:39;;;;;;;7.53;2.47;;;;;;;35.56;19.70;98867.16;2623491;39;20429;-71
2022/06/18 12:52:17;;;;;;;9.77;2.70;;;;;;;35.62;19.29;98862.16;2621808;54;20146;-71
2022/06/18 12:55:03;;;;;;;10.68;3.03;;;;;;;35.61;19.40;98857.81;2620607;54;20034;-70